Apgar, Montana
Current Conditions -  °F | °C
As of 10:25 AM on Thursday 30 Oct 2014 (Local Time) from KGPI Reporting Station
Haze Haze  
Wind Chill: 42°   Ceiling: Unl
Heat Index: 42°   Visibility: 6mi
Dew Point: 41°   Wind: 0mph
Humidity: 96%   Direction: NA
Pressure: 30.24"   Gusts: NA
Location:  48.5033°N, 113.981°W
Report Text: KGPI 301625Z 00000KT 6SM BR SCT002 06/05 A3024 RMK AO2 T00560050
Loading
Personal Weather Stations






























Interactive Weather Map New forecast layout! Learn more

10-Day Weather Forecast

Advertisements
Track Severe Weather on mobile